Meteo Giornale » Osservazioni meteo Italia » Treviso-Istrana

ore: 03:55 - Osservazioni Meteo Treviso-Istrana
Lat. 45° 41' N Lon. 12° 6' E Alt. 45 metri s.l.m.

sereno Europe/Rome

14 °C

Sereno

Temp. 24 Ore

14 °C

26 °C

Est/Nord-Est

7.4 Km/h

Dew point 13 °C

Umidità 93 %

Visibilità  10 Km

Il sole sorge alle ore 06:11

Il sole tramonta alle ore 20:08

Data e Ora Cielo e Fenomeni T °C DP °C Um. % Pres. hPa Vis. km Vento km/h
Oggi h: 03:55 sereno Sereno 14 13 93 1019 10 E/NE 7.4
Oggi h: 02:55 sereno Sereno 15 13 87 1019 10 NE 9.3
Oggi h: 01:55 sereno Sereno 15 12 82 1019 10 NE 7.4
Oggi h: 00:55 sereno Sereno 15 12 82 1019 10 N 5.5
Ieri h: 23:55 sereno Sereno 15 12 82 1019 10 N 3.7
Ieri h: 22:55 sereno Sereno 15 13 87 1019 10 N 3.7
Ieri h: 21:55 sereno Sereno 16 12 77 1018 10 N 5.5
Ieri h: 20:55 sereno Sereno 18 11 63 1018 10 N 5.5
Ieri h: 19:55 sereno Sereno 22 10 46 1018 10 S/SE 7.4
Ieri h: 18:55 sereno Sereno 23 10 43 1017 10 S 13
Ieri h: 17:55 sereno Sereno 24 10 41 1017 10 S/SO 11.1
Ieri h: 16:55 sereno Sereno 25 12 44 1018 10 S 13
Ieri h: 15:55 sereno Sereno 26 12 41 1018 10 S/SO 11.1
Ieri h: 14:55 sereno Sereno 26 13 44 1019 10 SE 7.4
Ieri h: 13:55 sereno Sereno 26 12 41 1019 10 N 5.5
Ieri h: 12:55 sereno Sereno 25 10 38 1020 10 N 0
Ieri h: 11:55 sereno Sereno 25 11 41 1020 10 S 7.4
Ieri h: 10:55 sereno Sereno 25 13 47 1020 10 S 9.3
Ieri h: 09:55 sereno Sereno 23 13 53 1020 10 N 5.5
Ieri h: 08:55 sereno Sereno 21 14 64 1020 10 E/NE 9.3
Ieri h: 07:55 sereno Sereno 17 14 82 1021 10 N/NE 7.4
Ieri h: 06:55 sereno Sereno 16 12 77 1020 10 N 0
Ieri h: 05:55 sereno Sereno 16 12 77 1020 10 N 5.5
Ieri h: 04:55 sereno Sereno 15 12 82 1020 10 NE 13